Griffing Park, Texas
Current Conditions -  °F | °C
As of 2:53 PM on Friday 24 Oct 2014 (Local Time) from KBPT Reporting Station
Clear Clear  
Wind Chill: 79°   Ceiling: Unl
Heat Index: 79°   Visibility: 10mi
Dew Point: 47°   Wind: 10mph
Humidity: 32%   Direction: 360°N
Pressure: 30.08"   Gusts: NA
Location:  29.7569°N, 94.1898°W
Report Text: KBPT 241953Z AUTO 36009KT 10SM CLR 26/08 A3008 RMK AO2 SLP187 T02610083
Loading
Personal Weather Stations






























Interactive Weather Map
Tropical Storm Tracking
New forecast layout! Learn more

10-Day Weather Forecast

Advertisements
Track Severe Weather on mobile